sensor_id;sensor_type;location;lat;lon;timestamp;pressure;altitude;pressure_sealevel;temperature;humidity
70254;BME280;57649;42.968;1.608;2023-03-01T00:00:52;97671.38;;;-0.87;79.61
70254;BME280;57649;42.968;1.608;2023-03-01T00:03:17;97675.91;;;-0.74;79.78
70254;BME280;57649;42.968;1.608;2023-03-01T00:05:46;97667.53;;;-0.81;80.77
70254;BME280;57649;42.968;1.608;2023-03-01T00:08:12;97666.41;;;-0.77;80.62
70254;BME280;57649;42.968;1.608;2023-03-01T00:10:38;97665.19;;;-0.86;80.62
70254;BME280;57649;42.968;1.608;2023-03-01T00:13:04;97665.72;;;-0.81;79.98
70254;BME280;57649;42.968;1.608;2023-03-01T00:15:31;97662.88;;;-0.62;79.78
70254;BME280;57649;42.968;1.608;2023-03-01T00:17:56;97668.50;;;-0.53;79.62
70254;BME280;57649;42.968;1.608;2023-03-01T00:20:22;97668.13;;;-0.62;79.58
70254;BME280;57649;42.968;1.608;2023-03-01T00:22:47;97668.78;;;-0.72;79.73
70254;BME280;57649;42.968;1.608;2023-03-01T00:25:13;97671.13;;;-0.53;79.15
70254;BME280;57649;42.968;1.608;2023-03-01T00:27:38;97669.63;;;-0.57;78.64
70254;BME280;57649;42.968;1.608;2023-03-01T00:30:04;97672.44;;;-0.46;77.86
70254;BME280;57649;42.968;1.608;2023-03-01T00:32:30;97661.94;;;-0.32;76.08
70254;BME280;57649;42.968;1.608;2023-03-01T00:34:55;97661.00;;;-0.31;75.64
70254;BME280;57649;42.968;1.608;2023-03-01T00:37:21;97663.59;;;-0.02;76.25
70254;BME280;57649;42.968;1.608;2023-03-01T00:39:47;97667.78;;;-0.12;76.71
70254;BME280;57649;42.968;1.608;2023-03-01T00:42:13;97664.75;;;-0.06;76.84
70254;BME280;57649;42.968;1.608;2023-03-01T00:44:38;97655.19;;;-0.07;76.81
70254;BME280;57649;42.968;1.608;2023-03-01T00:47:04;97660.72;;;-0.26;77.50
70254;BME280;57649;42.968;1.608;2023-03-01T00:49:29;97661.75;;;-0.29;77.60
70254;BME280;57649;42.968;1.608;2023-03-01T00:51:55;97657.25;;;-0.27;77.12
70254;BME280;57649;42.968;1.608;2023-03-01T00:54:20;97651.03;;;-0.26;76.58
70254;BME280;57649;42.968;1.608;2023-03-01T00:56:45;97646.72;;;-0.12;77.40
70254;BME280;57649;42.968;1.608;2023-03-01T00:59:11;97660.25;;;-0.18;78.02
70254;BME280;57649;42.968;1.608;2023-03-01T01:01:36;97656.50;;;-0.29;78.40
70254;BME280;57649;42.968;1.608;2023-03-01T01:04:05;97652.06;;;-0.28;77.94
70254;BME280;57649;42.968;1.608;2023-03-01T01:06:43;97656.69;;;-0.17;78.27
70254;BME280;57649;42.968;1.608;2023-03-01T01:09:12;97651.97;;;-0.12;77.84
70254;BME280;57649;42.968;1.608;2023-03-01T01:11:49;97645.03;;;-0.28;78.76
70254;BME280;57649;42.968;1.608;2023-03-01T01:14:16;97637.03;;;-0.26;78.69
70254;BME280;57649;42.968;1.608;2023-03-01T01:16:42;97645.78;;;-0.26;78.58
70254;BME280;57649;42.968;1.608;2023-03-01T01:19:07;97635.94;;;-0.51;78.60
70254;BME280;57649;42.968;1.608;2023-03-01T01:21:33;97627.16;;;-0.23;77.40
70254;BME280;57649;42.968;1.608;2023-03-01T01:23:59;97628.59;;;-0.46;78.07
70254;BME280;57649;42.968;1.608;2023-03-01T01:26:29;97627.94;;;-0.35;77.49
70254;BME280;57649;42.968;1.608;2023-03-01T01:28:55;97617.31;;;-0.33;76.07
70254;BME280;57649;42.968;1.608;2023-03-01T01:31:22;97617.41;;;-0.35;76.09
70254;BME280;57649;42.968;1.608;2023-03-01T01:33:49;97609.31;;;-0.32;75.78
70254;BME280;57649;42.968;1.608;2023-03-01T01:36:15;97601.50;;;-0.19;75.03
70254;BME280;57649;42.968;1.608;2023-03-01T01:38:41;97610.28;;;-0.33;75.59
70254;BME280;57649;42.968;1.608;2023-03-01T01:41:08;97602.19;;;-0.44;76.51
70254;BME280;57649;42.968;1.608;2023-03-01T01:43:36;97601.34;;;-0.30;77.42
70254;BME280;57649;42.968;1.608;2023-03-01T01:46:10;97602.94;;;-0.28;77.15
70254;BME280;57649;42.968;1.608;2023-03-01T01:49:02;97610.38;;;-0.34;78.38
70254;BME280;57649;42.968;1.608;2023-03-01T01:51:37;97609.91;;;-0.27;79.10
70254;BME280;57649;42.968;1.608;2023-03-01T01:54:17;97601.91;;;-0.40;79.01
70254;BME280;57649;42.968;1.608;2023-03-01T01:56:48;97605.97;;;-0.48;78.92
70254;BME280;57649;42.968;1.608;2023-03-01T01:59:15;97598.16;;;-0.35;77.93
70254;BME280;57649;42.968;1.608;2023-03-01T02:01:41;97589.59;;;-0.39;77.60
70254;BME280;57649;42.968;1.608;2023-03-01T02:04:07;97586.31;;;-0.57;78.86
70254;BME280;57649;42.968;1.608;2023-03-01T02:06:58;97580.63;;;-0.64;79.15
70254;BME280;57649;42.968;1.608;2023-03-01T02:09:26;97583.69;;;-0.43;77.80
70254;BME280;57649;42.968;1.608;2023-03-01T02:11:52;97583.59;;;-0.55;79.41
70254;BME280;57649;42.968;1.608;2023-03-01T02:14:18;97576.09;;;-0.33;76.44
70254;BME280;57649;42.968;1.608;2023-03-01T02:16:44;97574.41;;;-0.48;76.59
70254;BME280;57649;42.968;1.608;2023-03-01T02:19:18;97576.84;;;-0.31;75.47
70254;BME280;57649;42.968;1.608;2023-03-01T02:24:39;97562.47;;;-0.40;76.92
70254;BME280;57649;42.968;1.608;2023-03-01T02:27:09;97553.06;;;-0.29;75.91
70254;BME280;57649;42.968;1.608;2023-03-01T02:29:35;97550.63;;;-0.32;75.77
70254;BME280;57649;42.968;1.608;2023-03-01T02:32:02;97562.00;;;-0.05;75.51
70254;BME280;57649;42.968;1.608;2023-03-01T02:34:30;97555.75;;;-0.16;76.04
70254;BME280;57649;42.968;1.608;2023-03-01T02:37:07;97555.00;;;-0.18;76.09
70254;BME280;57649;42.968;1.608;2023-03-01T02:39:40;97537.91;;;-0.26;75.56
70254;BME280;57649;42.968;1.608;2023-03-01T02:42:11;97550.50;;;-0.16;77.06
70254;BME280;57649;42.968;1.608;2023-03-01T02:44:38;97549.94;;;-0.22;77.44
70254;BME280;57649;42.968;1.608;2023-03-01T02:47:04;97549.66;;;-0.31;77.97
70254;BME280;57649;42.968;1.608;2023-03-01T02:49:33;97541.88;;;-0.33;77.60
70254;BME280;57649;42.968;1.608;2023-03-01T02:52:23;97543.75;;;-0.35;77.85
70254;BME280;57649;42.968;1.608;2023-03-01T02:57:20;97541.91;;;-0.47;78.16
70254;BME280;57649;42.968;1.608;2023-03-01T02:59:47;97543.75;;;-0.35;78.23
70254;BME280;57649;42.968;1.608;2023-03-01T03:02:26;97549.00;;;-0.35;78.22
70254;BME280;57649;42.968;1.608;2023-03-01T03:07:32;97554.47;;;-0.38;78.26
70254;BME280;57649;42.968;1.608;2023-03-01T03:09:58;97550.25;;;-0.41;78.26
70254;BME280;57649;42.968;1.608;2023-03-01T03:12:23;97541.41;;;-0.40;78.56
70254;BME280;57649;42.968;1.608;2023-03-01T03:14:48;97537.38;;;-0.31;78.23
70254;BME280;57649;42.968;1.608;2023-03-01T03:17:14;97533.44;;;-0.38;78.50
70254;BME280;57649;42.968;1.608;2023-03-01T03:19:39;97529.00;;;-0.37;78.49
70254;BME280;57649;42.968;1.608;2023-03-01T03:22:04;97520.53;;;-0.28;78.37
70254;BME280;57649;42.968;1.608;2023-03-01T03:24:30;97513.84;;;-0.20;77.92
70254;BME280;57649;42.968;1.608;2023-03-01T03:27:03;97514.22;;;-0.26;77.83
70254;BME280;57649;42.968;1.608;2023-03-01T03:29:29;97513.13;;;-0.36;78.11
70254;BME280;57649;42.968;1.608;2023-03-01T03:31:54;97519.28;;;-0.23;77.69
70254;BME280;57649;42.968;1.608;2023-03-01T03:34:20;97507.94;;;-0.23;78.05
70254;BME280;57649;42.968;1.608;2023-03-01T03:36:45;97512.09;;;-0.06;77.29
70254;BME280;57649;42.968;1.608;2023-03-01T03:39:10;97504.53;;;-0.11;77.42
70254;BME280;57649;42.968;1.608;2023-03-01T03:41:36;97511.56;;;-0.11;77.85
70254;BME280;57649;42.968;1.608;2023-03-01T03:44:01;97513.66;;;-0.16;78.51
70254;BME280;57649;42.968;1.608;2023-03-01T03:46:26;97507.03;;;-0.09;77.96
70254;BME280;57649;42.968;1.608;2023-03-01T03:48:52;97507.44;;;-0.15;78.08
70254;BME280;57649;42.968;1.608;2023-03-01T03:51:18;97506.38;;;-0.13;78.49
70254;BME280;57649;42.968;1.608;2023-03-01T03:53:44;97512.41;;;-0.11;78.61
70254;BME280;57649;42.968;1.608;2023-03-01T03:56:10;97520.69;;;-0.17;79.49
70254;BME280;57649;42.968;1.608;2023-03-01T03:58:37;97513.53;;;-0.15;79.64
70254;BME280;57649;42.968;1.608;2023-03-01T04:01:03;97519.84;;;-0.17;80.33
70254;BME280;57649;42.968;1.608;2023-03-01T04:03:29;97512.09;;;-0.33;81.18
70254;BME280;57649;42.968;1.608;2023-03-01T04:06:00;97509.19;;;-0.43;81.50
70254;BME280;57649;42.968;1.608;2023-03-01T04:08:25;97519.81;;;-0.45;82.17
70254;BME280;57649;42.968;1.608;2023-03-01T04:10:56;97514.72;;;-0.33;81.46
70254;BME280;57649;42.968;1.608;2023-03-01T04:13:22;97521.22;;;-0.39;81.77
70254;BME280;57649;42.968;1.608;2023-03-01T04:15:51;97521.03;;;-0.36;81.69
70254;BME280;57649;42.968;1.608;2023-03-01T04:18:17;97523.75;;;-0.37;81.64
70254;BME280;57649;42.968;1.608;2023-03-01T04:20:43;97512.31;;;-0.51;82.31
70254;BME280;57649;42.968;1.608;2023-03-01T04:23:16;97510.03;;;-0.43;82.60
70254;BME280;57649;42.968;1.608;2023-03-01T04:25:50;97514.63;;;-0.32;81.95
70254;BME280;57649;42.968;1.608;2023-03-01T04:28:23;97501.28;;;-0.29;81.32
70254;BME280;57649;42.968;1.608;2023-03-01T04:30:50;97503.81;;;-0.27;81.03
70254;BME280;57649;42.968;1.608;2023-03-01T04:33:16;97499.22;;;-0.24;81.33
70254;BME280;57649;42.968;1.608;2023-03-01T04:35:41;97506.78;;;-0.19;80.23
70254;BME280;57649;42.968;1.608;2023-03-01T04:38:07;97490.75;;;-0.29;80.55
70254;BME280;57649;42.968;1.608;2023-03-01T04:40:33;97509.13;;;-0.14;79.68
70254;BME280;57649;42.968;1.608;2023-03-01T04:42:59;97496.91;;;-0.15;79.75
70254;BME280;57649;42.968;1.608;2023-03-01T04:45:24;97498.44;;;-0.26;80.92
70254;BME280;57649;42.968;1.608;2023-03-01T04:47:50;97497.88;;;-0.16;81.14
70254;BME280;57649;42.968;1.608;2023-03-01T04:50:18;97502.91;;;-0.13;80.55
70254;BME280;57649;42.968;1.608;2023-03-01T04:52:46;97505.22;;;-0.22;81.42
70254;BME280;57649;42.968;1.608;2023-03-01T04:55:12;97494.22;;;-0.28;81.93
70254;BME280;57649;42.968;1.608;2023-03-01T04:57:38;97503.81;;;-0.27;81.65
70254;BME280;57649;42.968;1.608;2023-03-01T05:00:06;97500.78;;;-0.21;82.01
70254;BME280;57649;42.968;1.608;2023-03-01T05:03:05;97497.91;;;-0.31;81.26
70254;BME280;57649;42.968;1.608;2023-03-01T05:05:33;97502.53;;;-0.34;81.69
70254;BME280;57649;42.968;1.608;2023-03-01T05:08:01;97508.22;;;-0.28;82.03
70254;BME280;57649;42.968;1.608;2023-03-01T05:10:28;97498.06;;;-0.20;82.05
70254;BME280;57649;42.968;1.608;2023-03-01T05:12:54;97497.50;;;-0.25;81.49
70254;BME280;57649;42.968;1.608;2023-03-01T05:15:20;97491.59;;;-0.28;81.90
70254;BME280;57649;42.968;1.608;2023-03-01T05:17:48;97497.41;;;-0.23;81.59
70254;BME280;57649;42.968;1.608;2023-03-01T05:20:13;97493.94;;;-0.24;82.00
70254;BME280;57649;42.968;1.608;2023-03-01T05:22:38;97494.38;;;-0.17;81.52
70254;BME280;57649;42.968;1.608;2023-03-01T05:25:04;97493.78;;;-0.08;80.88
70254;BME280;57649;42.968;1.608;2023-03-01T05:27:30;97491.66;;;-0.15;82.01
70254;BME280;57649;42.968;1.608;2023-03-01T05:29:56;97491.28;;;0.04;81.33
70254;BME280;57649;42.968;1.608;2023-03-01T05:32:21;97486.66;;;0.07;80.99
70254;BME280;57649;42.968;1.608;2023-03-01T05:34:47;97488.88;;;0.01;81.29
70254;BME280;57649;42.968;1.608;2023-03-01T05:37:13;97491.25;;;-0.09;80.86
70254;BME280;57649;42.968;1.608;2023-03-01T05:39:38;97490.50;;;-0.11;81.10
70254;BME280;57649;42.968;1.608;2023-03-01T05:42:05;97475.59;;;-0.11;81.77
70254;BME280;57649;42.968;1.608;2023-03-01T05:44:30;97480.16;;;0.00;80.84
70254;BME280;57649;42.968;1.608;2023-03-01T05:46:56;97484.13;;;-0.07;81.02
70254;BME280;57649;42.968;1.608;2023-03-01T05:49:22;97476.41;;;-0.10;81.74
70254;BME280;57649;42.968;1.608;2023-03-01T05:51:52;97481.50;;;-0.07;81.39
70254;BME280;57649;42.968;1.608;2023-03-01T05:54:19;97483.56;;;-0.12;81.64
70254;BME280;57649;42.968;1.608;2023-03-01T05:56:45;97477.44;;;-0.13;81.70
70254;BME280;57649;42.968;1.608;2023-03-01T05:59:11;97476.59;;;-0.13;81.95
70254;BME280;57649;42.968;1.608;2023-03-01T06:01:37;97473.59;;;-0.07;81.87
70254;BME280;57649;42.968;1.608;2023-03-01T06:04:03;97473.28;;;-0.03;81.35
70254;BME280;57649;42.968;1.608;2023-03-01T06:06:29;97473.81;;;0.03;80.31
70254;BME280;57649;42.968;1.608;2023-03-01T06:08:55;97471.28;;;0.01;79.54
70254;BME280;57649;42.968;1.608;2023-03-01T06:11:21;97465.38;;;-0.03;80.31
70254;BME280;57649;42.968;1.608;2023-03-01T06:13:47;97463.75;;;0.09;80.21
70254;BME280;57649;42.968;1.608;2023-03-01T06:16:13;97468.59;;;0.15;80.25
70254;BME280;57649;42.968;1.608;2023-03-01T06:18:39;97450.75;;;-0.07;80.45
70254;BME280;57649;42.968;1.608;2023-03-01T06:21:06;97459.28;;;-0.03;80.69
70254;BME280;57649;42.968;1.608;2023-03-01T06:23:32;97459.47;;;-0.06;80.63
70254;BME280;57649;42.968;1.608;2023-03-01T06:25:57;97459.66;;;-0.09;80.92
70254;BME280;57649;42.968;1.608;2023-03-01T06:28:23;97453.81;;;0.00;80.72
70254;BME280;57649;42.968;1.608;2023-03-01T06:30:50;97457.25;;;-0.12;82.00
70254;BME280;57649;42.968;1.608;2023-03-01T06:33:16;97455.38;;;-0.10;81.77
70254;BME280;57649;42.968;1.608;2023-03-01T06:35:44;97451.63;;;-0.21;81.94
70254;BME280;57649;42.968;1.608;2023-03-01T06:38:09;97461.22;;;-0.20;82.05
70254;BME280;57649;42.968;1.608;2023-03-01T06:40:35;97456.19;;;-0.10;81.86
70254;BME280;57649;42.968;1.608;2023-03-01T06:43:01;97457.00;;;-0.22;81.48
70254;BME280;57649;42.968;1.608;2023-03-01T06:45:26;97457.53;;;-0.17;81.85
70254;BME280;57649;42.968;1.608;2023-03-01T06:47:52;97462.38;;;-0.24;81.30
70254;BME280;57649;42.968;1.608;2023-03-01T06:50:18;97467.88;;;-0.14;82.00
70254;BME280;57649;42.968;1.608;2023-03-01T06:52:44;97458.50;;;-0.18;82.17
70254;BME280;57649;42.968;1.608;2023-03-01T06:55:11;97459.25;;;-0.16;82.79
70254;BME280;57649;42.968;1.608;2023-03-01T06:57:40;97456.00;;;-0.34;83.70
70254;BME280;57649;42.968;1.608;2023-03-01T07:00:06;97460.16;;;-0.17;83.63
70254;BME280;57649;42.968;1.608;2023-03-01T07:02:33;97458.34;;;-0.29;84.37
70254;BME280;57649;42.968;1.608;2023-03-01T07:04:58;97451.34;;;-0.43;84.94
70254;BME280;57649;42.968;1.608;2023-03-01T07:07:24;97460.94;;;-0.42;85.17
70254;BME280;57649;42.968;1.608;2023-03-01T07:09:49;97455.81;;;-0.31;84.28
70254;BME280;57649;42.968;1.608;2023-03-01T07:12:15;97455.78;;;-0.44;84.22
70254;BME280;57649;42.968;1.608;2023-03-01T07:14:40;97463.22;;;-0.65;85.22
70254;BME280;57649;42.968;1.608;2023-03-01T07:17:06;97470.09;;;-0.62;85.30
70254;BME280;57649;42.968;1.608;2023-03-01T07:19:31;97466.13;;;-0.55;85.82
70254;BME280;57649;42.968;1.608;2023-03-01T07:21:57;97467.53;;;-0.49;85.49
70254;BME280;57649;42.968;1.608;2023-03-01T07:24:22;97471.34;;;-0.41;85.41
70254;BME280;57649;42.968;1.608;2023-03-01T07:26:49;97481.41;;;-0.47;85.15
70254;BME280;57649;42.968;1.608;2023-03-01T07:29:15;97477.19;;;-0.50;85.08
70254;BME280;57649;42.968;1.608;2023-03-01T07:31:41;97484.59;;;-0.42;84.18
70254;BME280;57649;42.968;1.608;2023-03-01T07:34:06;97482.13;;;-0.31;84.19
70254;BME280;57649;42.968;1.608;2023-03-01T07:36:31;97483.78;;;-0.30;83.43
70254;BME280;57649;42.968;1.608;2023-03-01T07:38:57;97479.47;;;-0.16;82.94
70254;BME280;57649;42.968;1.608;2023-03-01T07:41:24;97479.91;;;0.03;81.65
70254;BME280;57649;42.968;1.608;2023-03-01T07:43:50;97479.97;;;0.16;81.11
70254;BME280;57649;42.968;1.608;2023-03-01T07:46:15;97475.75;;;0.13;81.06
70254;BME280;57649;42.968;1.608;2023-03-01T07:48:40;97483.97;;;0.22;80.51
70254;BME280;57649;42.968;1.608;2023-03-01T07:51:07;97483.91;;;0.36;80.02
70254;BME280;57649;42.968;1.608;2023-03-01T07:53:35;97480.66;;;0.45;79.50
70254;BME280;57649;42.968;1.608;2023-03-01T07:56:11;97484.56;;;0.52;79.20
70254;BME280;57649;42.968;1.608;2023-03-01T07:58:39;97489.09;;;0.50;78.77
70254;BME280;57649;42.968;1.608;2023-03-01T08:01:12;97492.03;;;0.58;78.80
70254;BME280;57649;42.968;1.608;2023-03-01T08:03:38;97496.47;;;0.71;77.19
70254;BME280;57649;42.968;1.608;2023-03-01T08:06:07;97498.38;;;0.56;77.44
70254;BME280;57649;42.968;1.608;2023-03-01T08:08:34;97492.81;;;0.61;77.88
70254;BME280;57649;42.968;1.608;2023-03-01T08:11:02;97491.53;;;0.66;78.19
70254;BME280;57649;42.968;1.608;2023-03-01T08:13:28;97493.94;;;0.82;76.77
70254;BME280;57649;42.968;1.608;2023-03-01T08:15:53;97495.31;;;0.88;76.38
70254;BME280;57649;42.968;1.608;2023-03-01T08:18:19;97491.44;;;1.06;75.65
70254;BME280;57649;42.968;1.608;2023-03-01T08:20:46;97495.97;;;0.91;75.52
70254;BME280;57649;42.968;1.608;2023-03-01T08:23:12;97495.66;;;0.83;74.68
70254;BME280;57649;42.968;1.608;2023-03-01T08:25:38;97484.47;;;0.92;74.29
70254;BME280;57649;42.968;1.608;2023-03-01T08:28:04;97490.81;;;1.03;74.13
70254;BME280;57649;42.968;1.608;2023-03-01T08:30:29;97494.56;;;1.24;74.19
70254;BME280;57649;42.968;1.608;2023-03-01T08:32:55;97488.88;;;1.30;73.09
70254;BME280;57649;42.968;1.608;2023-03-01T08:35:20;97492.25;;;1.20;73.66
70254;BME280;57649;42.968;1.608;2023-03-01T08:37:46;97496.44;;;1.35;72.88
70254;BME280;57649;42.968;1.608;2023-03-01T08:40:12;97490.78;;;1.28;73.39
70254;BME280;57649;42.968;1.608;2023-03-01T08:42:39;97492.44;;;1.29;73.31
70254;BME280;57649;42.968;1.608;2023-03-01T08:45:05;97498.16;;;1.36;72.67
70254;BME280;57649;42.968;1.608;2023-03-01T08:47:31;97492.53;;;1.41;72.47
70254;BME280;57649;42.968;1.608;2023-03-01T08:49:59;97494.75;;;1.47;72.38
70254;BME280;57649;42.968;1.608;2023-03-01T08:52:24;97483.06;;;1.25;72.48
70254;BME280;57649;42.968;1.608;2023-03-01T08:54:49;97481.41;;;1.11;72.05
70254;BME280;57649;42.968;1.608;2023-03-01T08:57:15;97492.16;;;1.21;72.51
70254;BME280;57649;42.968;1.608;2023-03-01T08:59:43;97490.25;;;1.23;71.85
70254;BME280;57649;42.968;1.608;2023-03-01T09:02:15;97480.03;;;1.06;69.63
70254;BME280;57649;42.968;1.608;2023-03-01T09:04:41;97479.91;;;1.20;70.87
70254;BME280;57649;42.968;1.608;2023-03-01T09:07:08;97473.44;;;1.37;68.73
70254;BME280;57649;42.968;1.608;2023-03-01T09:09:34;97468.56;;;1.44;69.26
70254;BME280;57649;42.968;1.608;2023-03-01T09:11:59;97469.81;;;1.51;69.20
70254;BME280;57649;42.968;1.608;2023-03-01T09:14:25;97459.84;;;1.67;68.92
70254;BME280;57649;42.968;1.608;2023-03-01T09:16:51;97462.91;;;1.98;67.90
70254;BME280;57649;42.968;1.608;2023-03-01T09:19:16;97454.47;;;2.75;64.87
70254;BME280;57649;42.968;1.608;2023-03-01T09:21:42;97440.66;;;3.39;61.85
70254;BME280;57649;42.968;1.608;2023-03-01T09:24:17;97442.72;;;3.36;61.46
70254;BME280;57649;42.968;1.608;2023-03-01T09:26:43;97442.00;;;3.22;60.83
70254;BME280;57649;42.968;1.608;2023-03-01T09:29:11;97444.88;;;2.97;61.05
70254;BME280;57649;42.968;1.608;2023-03-01T09:31:37;97433.94;;;2.90;61.04
70254;BME280;57649;42.968;1.608;2023-03-01T09:34:02;97432.63;;;2.73;60.95
70254;BME280;57649;42.968;1.608;2023-03-01T09:36:28;97412.91;;;3.00;61.06
70254;BME280;57649;42.968;1.608;2023-03-01T09:38:53;97421.31;;;3.16;60.59
70254;BME280;57649;42.968;1.608;2023-03-01T09:44:40;97403.78;;;3.15;59.04
70254;BME280;57649;42.968;1.608;2023-03-01T09:47:21;97404.94;;;3.11;58.43
70254;BME280;57649;42.968;1.608;2023-03-01T09:49:59;97396.91;;;3.67;57.50
70254;BME280;57649;42.968;1.608;2023-03-01T09:52:39;97396.88;;;3.46;57.79
70254;BME280;57649;42.968;1.608;2023-03-01T09:55:26;97386.69;;;3.19;57.61
70254;BME280;57649;42.968;1.608;2023-03-01T10:00:50;97382.75;;;3.02;57.49
70254;BME280;57649;42.968;1.608;2023-03-01T10:08:42;97362.47;;;4.21;52.27
70254;BME280;57649;42.968;1.608;2023-03-01T10:11:38;97358.03;;;5.04;51.72
70254;BME280;57649;42.968;1.608;2023-03-01T10:14:31;97360.47;;;4.55;51.54
70254;BME280;57649;42.968;1.608;2023-03-01T10:19:43;97352.28;;;4.99;50.47
70254;BME280;57649;42.968;1.608;2023-03-01T10:24:35;97339.78;;;5.20;49.73
70254;BME280;57649;42.968;1.608;2023-03-01T10:27:05;97335.56;;;5.97;48.05
70254;BME280;57649;42.968;1.608;2023-03-01T10:29:43;97334.28;;;6.21;47.41
70254;BME280;57649;42.968;1.608;2023-03-01T10:32:11;97337.00;;;6.39;45.82
70254;BME280;57649;42.968;1.608;2023-03-01T10:34:37;97338.47;;;6.24;46.98
70254;BME280;57649;42.968;1.608;2023-03-01T10:37:14;97337.63;;;6.13;46.00
70254;BME280;57649;42.968;1.608;2023-03-01T10:40:04;97334.09;;;6.32;46.40
70254;BME280;57649;42.968;1.608;2023-03-01T10:42:37;97326.94;;;6.43;45.56
70254;BME280;57649;42.968;1.608;2023-03-01T10:45:19;97334.53;;;6.38;45.82
70254;BME280;57649;42.968;1.608;2023-03-01T10:48:08;97322.22;;;5.88;46.09
70254;BME280;57649;42.968;1.608;2023-03-01T10:50:36;97313.50;;;6.44;44.86
70254;BME280;57649;42.968;1.608;2023-03-01T10:53:04;97308.63;;;6.77;44.10
70254;BME280;57649;42.968;1.608;2023-03-01T10:55:39;97303.69;;;6.54;43.63
70254;BME280;57649;42.968;1.608;2023-03-01T11:00:53;97296.66;;;7.19;44.33
70254;BME280;57649;42.968;1.608;2023-03-01T11:03:38;97290.34;;;6.92;44.14
70254;BME280;57649;42.968;1.608;2023-03-01T11:11:21;97288.47;;;7.02;45.04
70254;BME280;57649;42.968;1.608;2023-03-01T11:16:35;97281.09;;;6.96;45.33
70254;BME280;57649;42.968;1.608;2023-03-01T11:21:43;97267.34;;;7.01;44.19
70254;BME280;57649;42.968;1.608;2023-03-01T11:24:12;97263.84;;;7.00;44.83
70254;BME280;57649;42.968;1.608;2023-03-01T11:26:41;97261.72;;;7.04;45.32
70254;BME280;57649;42.968;1.608;2023-03-01T11:29:15;97249.66;;;7.27;44.75
70254;BME280;57649;42.968;1.608;2023-03-01T11:31:44;97246.75;;;7.21;44.95
70254;BME280;57649;42.968;1.608;2023-03-01T11:34:14;97236.97;;;6.93;45.28
70254;BME280;57649;42.968;1.608;2023-03-01T11:36:56;97243.59;;;6.62;44.38
70254;BME280;57649;42.968;1.608;2023-03-01T11:39:38;97227.91;;;6.31;45.59
70254;BME280;57649;42.968;1.608;2023-03-01T11:42:12;97231.84;;;6.17;46.24
70254;BME280;57649;42.968;1.608;2023-03-01T11:44:39;97224.09;;;6.33;47.01
70254;BME280;57649;42.968;1.608;2023-03-01T11:49:53;97215.91;;;6.27;44.93
70254;BME280;57649;42.968;1.608;2023-03-01T11:52:48;97228.91;;;6.20;45.96
70254;BME280;57649;42.968;1.608;2023-03-01T12:06:45;97184.47;;;8.62;41.59
70254;BME280;57649;42.968;1.608;2023-03-01T12:14:59;97174.16;;;7.55;45.24
70254;BME280;57649;42.968;1.608;2023-03-01T12:18:00;97173.72;;;7.41;44.06
70254;BME280;57649;42.968;1.608;2023-03-01T12:23:50;97175.22;;;6.90;45.21
70254;BME280;57649;42.968;1.608;2023-03-01T12:26:33;97164.53;;;7.00;44.62
70254;BME280;57649;42.968;1.608;2023-03-01T12:37:29;97167.91;;;6.28;46.32
70254;BME280;57649;42.968;1.608;2023-03-01T12:45:43;97149.63;;;6.43;45.91
70254;BME280;57649;42.968;1.608;2023-03-01T12:48:18;97146.78;;;6.27;46.26
70254;BME280;57649;42.968;1.608;2023-03-01T12:50:49;97144.78;;;5.91;46.54
70254;BME280;57649;42.968;1.608;2023-03-01T12:53:26;97141.00;;;5.94;46.62
70254;BME280;57649;42.968;1.608;2023-03-01T12:55:54;97142.28;;;6.27;46.40
70254;BME280;57649;42.968;1.608;2023-03-01T13:04:10;97132.53;;;6.46;47.28
70254;BME280;57649;42.968;1.608;2023-03-01T13:12:03;97119.34;;;6.26;46.46
70254;BME280;57649;42.968;1.608;2023-03-01T13:16:57;97114.44;;;5.94;47.00
70254;BME280;57649;42.968;1.608;2023-03-01T13:19:25;97113.25;;;6.16;46.53
70254;BME280;57649;42.968;1.608;2023-03-01T13:21:52;97123.38;;;6.03;46.67
70254;BME280;57649;42.968;1.608;2023-03-01T13:24:40;97115.44;;;6.21;47.21
70254;BME280;57649;42.968;1.608;2023-03-01T13:29:55;97130.34;;;6.04;46.52
70254;BME280;57649;42.968;1.608;2023-03-01T13:34:52;97114.22;;;6.15;46.73
70254;BME280;57649;42.968;1.608;2023-03-01T13:37:21;97122.88;;;6.17;47.58
70254;BME280;57649;42.968;1.608;2023-03-01T13:39:47;97109.38;;;6.01;46.73
70254;BME280;57649;42.968;1.608;2023-03-01T13:42:42;97107.63;;;6.47;46.63
70254;BME280;57649;42.968;1.608;2023-03-01T13:45:19;97106.25;;;6.61;46.32
70254;BME280;57649;42.968;1.608;2023-03-01T13:47:46;97104.03;;;6.10;46.57
70254;BME280;57649;42.968;1.608;2023-03-01T13:50:27;97104.78;;;6.30;46.94
70254;BME280;57649;42.968;1.608;2023-03-01T13:52:57;97114.63;;;6.20;47.00
70254;BME280;57649;42.968;1.608;2023-03-01T13:55:47;97097.75;;;6.57;47.11
70254;BME280;57649;42.968;1.608;2023-03-01T13:58:23;97096.03;;;6.84;46.01
70254;BME280;57649;42.968;1.608;2023-03-01T14:01:03;97104.75;;;6.58;47.22
70254;BME280;57649;42.968;1.608;2023-03-01T14:03:30;97095.31;;;6.18;47.27
70254;BME280;57649;42.968;1.608;2023-03-01T14:06:08;97094.22;;;6.39;47.67
70254;BME280;57649;42.968;1.608;2023-03-01T14:08:36;97094.09;;;6.40;46.08
70254;BME280;57649;42.968;1.608;2023-03-01T14:19:19;97086.97;;;5.75;48.14
70254;BME280;57649;42.968;1.608;2023-03-01T14:22:43;97090.91;;;6.09;48.47
70254;BME280;57649;42.968;1.608;2023-03-01T14:24:50;97093.00;;;6.33;47.12
70254;BME280;57649;42.968;1.608;2023-03-01T14:27:17;97084.09;;;5.96;47.77
70254;BME280;57649;42.968;1.608;2023-03-01T14:29:44;97090.00;;;6.18;47.45
70254;BME280;57649;42.968;1.608;2023-03-01T14:34:46;97088.22;;;6.36;47.67
70254;BME280;57649;42.968;1.608;2023-03-01T14:39:43;97100.91;;;6.25;47.55
70254;BME280;57649;42.968;1.608;2023-03-01T14:42:09;97089.31;;;6.16;47.59
70254;BME280;57649;42.968;1.608;2023-03-01T14:44:34;97088.97;;;6.29;47.75
70254;BME280;57649;42.968;1.608;2023-03-01T14:47:03;97099.25;;;6.42;46.93
70254;BME280;57649;42.968;1.608;2023-03-01T14:49:30;97095.06;;;6.11;47.47
70254;BME280;57649;42.968;1.608;2023-03-01T14:52:06;97085.78;;;6.25;48.67
70254;BME280;57649;42.968;1.608;2023-03-01T14:54:40;97094.03;;;6.22;48.10
70254;BME280;57649;42.968;1.608;2023-03-01T14:57:27;97090.78;;;5.63;49.03
70254;BME280;57649;42.968;1.608;2023-03-01T14:59:58;97106.84;;;6.09;48.16
70254;BME280;57649;42.968;1.608;2023-03-01T15:02:27;97094.59;;;5.88;47.80